Aurora, OR

11:12 PM PDT on March 31, 2015 (GMT -0700)
Butteville | | Change Station
CLOSE
Current Station
Personal Weather Station
Location: Aurora, OR
Elevation: 180 ft
Nearby Weather Stations

Elev 180 ft 45.24 °N, 122.85 °W | Updated 2 minutes ago

Overcast
Overcast
44.8 °F
Feels Like 45 °F
N
0.0
Wind Variable Wind from North
Gusts 0.0 mph

Today
High -- | Low -- °F
--% Chance of Precip.
Yesterday
High -- | Low -- °F
Precip. -- in
6:53 AM 7:37 PM
Waxing Gibbous, 91% visible
Pressure 30.30 in
Visibility 10.0 miles
Clouds Few 5000 ft
Overcast 7000 ft
Windchill 45 °F
Dew Point 41 °F
Humidity 86%
Rainfall 0.30 in
Snow Depth Not available.
UV 0 out of 12
Pollen 2.50 out of 12
Air Quality Not available.
Flu Activity Not available.
METAR KUAO 010553Z AUTO 19003KT 10SM FEW050 OVC070 07/06 A3029 RMK AO2 RAE06 SLP259 P0000 60010 T00720056 10106 20061 51018

More Conditions Fewer Conditions

Pressure 30.30 in
Visibility 10.0 miles
Clouds Few 5000 ft
Overcast 7000 ft
Windchill 45 °F
Dew Point 41 °F
Humidity 86%
Rainfall 0.30 in
Snow Depth Not available.
UV 0 out of 12
Pollen 2.50 out of 12
Air Quality Not available.
Flu Activity Not available.
METAR KUAO 010553Z AUTO 19003KT 10SM FEW050 OVC070 07/06 A3029 RMK AO2 RAE06 SLP259 P0000 60010 T00720056 10106 20061 51018

More Conditions Fewer Conditions

10-Day Weather Forecast

Almanac

Astronomy

Mar. 31, 2015 Rise Set
Actual Time
Civil Twilight
Nautical Twilight
Astronomical Twilight
Moon
Length of Visible Light
Length of Day
Tomorrow will be .
, % of the Moon is Illuminated

Today's Extremes

State Highs State Lows

Community

WunderPhotos

Upload Photos

1,809,924 photos uploaded!

WunderBlogs® & News

Nearby

Air Quality

  Air Quality AQ Index Pollutant
Not available.

Snow Depth

Station Depth Elevation

Earthquake Activity

City Distance Mag. Time & Date
Minimum magnitude displayed is 2.5.

Coastal Water Temperatures

Place Temperature

Stations

Nearby Weather Stations

Station Location Temp. Windchill Dew Point Humidity Wind Precip. Elev Updated Type